Time;durP1;ratioP1;P1;durP2;ratioP2;P2;SDS_P1;SDS_P2;PMS_P1;PMS_P2;Temp;Humidity;BMP_temperature;BMP_pressure;BME280_temperature;BME280_humidity;BME280_pressure;Samples;Min_cycle;Max_cycle;Signal;HPM_P1;HPM_P2
2021/04/11 00:01:05;;;;;;;4.93;2.83;;;;;;;22.57;32.38;95494.03;4991281;28;20025;-78
2021/04/11 00:03:31;;;;;;;5.20;3.00;;;;;;;22.71;32.32;95517.59;4975546;28;20022;-78
2021/04/11 00:05:56;;;;;;;4.75;2.80;;;;;;;22.77;32.42;95521.06;4991230;28;20030;-78
2021/04/11 00:08:22;;;;;;;5.10;2.80;;;;;;;22.70;32.31;95521.53;4991868;28;20034;-79
2021/04/11 00:10:58;;;;;;;4.72;2.95;;;;;;;22.46;32.44;95491.28;5009124;28;20607;-77
2021/04/11 00:13:32;;;;;;;4.45;2.88;;;;;;;22.59;32.53;95505.91;4991607;28;20045;-79
2021/04/11 00:15:57;;;;;;;4.57;2.75;;;;;;;22.69;32.43;95530.94;4992278;28;20410;-78
2021/04/11 00:18:23;;;;;;;4.57;2.83;;;;;;;22.70;32.55;95532.44;5010237;28;20038;-78
2021/04/11 00:20:48;;;;;;;4.82;2.95;;;;;;;22.68;32.43;95519.31;5009152;28;20033;-77
2021/04/11 00:23:14;;;;;;;4.75;3.03;;;;;;;22.57;32.45;95507.63;4975380;28;20025;-78
2021/04/11 00:25:40;;;;;;;4.00;2.72;;;;;;;22.66;32.35;95526.47;4990737;28;20034;-79
2021/04/11 00:28:09;;;;;;;4.28;2.58;;;;;;;22.68;32.56;95524.00;5001487;28;20558;-79
2021/04/11 00:30:35;;;;;;;3.63;2.20;;;;;;;22.64;32.67;95523.50;4989419;28;20042;-78
2021/04/11 00:33:01;;;;;;;4.63;2.72;;;;;;;22.59;32.66;95521.53;4988294;28;20229;-79
2021/04/11 00:35:27;;;;;;;4.57;2.75;;;;;;;22.62;32.70;95531.44;4989189;28;20084;-78
2021/04/11 00:37:52;;;;;;;5.30;3.13;;;;;;;22.62;32.54;95531.44;4993682;28;20052;-78
2021/04/11 00:40:22;;;;;;;5.03;2.90;;;;;;;22.62;32.71;95525.97;5007932;28;20026;-78
2021/04/11 00:42:52;;;;;;;4.63;2.80;;;;;;;22.59;32.54;95538.59;4991610;28;20044;-79
2021/04/11 00:45:35;;;;;;;4.47;3.00;;;;;;;22.52;32.82;95522.00;5009078;28;20026;-78
2021/04/11 00:48:01;;;;;;;3.67;2.50;;;;;;;22.52;32.85;95527.44;4992644;28;20056;-79
2021/04/11 00:50:27;;;;;;;4.75;2.47;;;;;;;22.53;32.70;95529.66;4991445;28;20499;-78
2021/04/11 00:52:52;;;;;;;5.13;3.10;;;;;;;22.50;32.76;95524.47;4987843;28;20491;-78
2021/04/11 00:55:20;;;;;;;4.68;3.00;;;;;;;22.45;32.83;95525.19;5002935;28;20049;-78
2021/04/11 00:57:45;;;;;;;4.53;2.95;;;;;;;22.47;32.93;95520.75;4990824;28;20021;-79
2021/04/11 01:00:11;;;;;;;5.05;2.90;;;;;;;22.44;33.06;95532.59;5008751;28;20512;-78
2021/04/11 01:02:38;;;;;;;5.35;3.28;;;;;;;22.51;32.91;95532.13;5009090;28;20025;-78
2021/04/11 01:05:27;;;;;;;4.28;2.78;;;;;;;22.47;32.73;95533.63;4991328;28;20050;-79
2021/04/11 01:07:52;;;;;;;4.78;3.03;;;;;;;22.50;32.75;95538.81;5008488;28;20038;-79
2021/04/11 01:10:20;;;;;;;5.03;3.22;;;;;;;22.42;32.91;95524.19;4975955;28;20033;-78
2021/04/11 01:12:45;;;;;;;4.65;2.95;;;;;;;22.30;32.98;95511.06;4975242;28;20057;-78
2021/04/11 01:15:16;;;;;;;3.80;2.70;;;;;;;22.43;32.97;95536.59;4991198;28;20707;-79
2021/04/11 01:17:42;;;;;;;5.10;3.30;;;;;;;22.45;32.96;95544.22;5010896;28;20036;-78
2021/04/11 01:20:09;;;;;;;5.70;3.00;;;;;;;22.17;33.15;95502.56;5012355;28;20029;-77
2021/04/11 01:22:56;;;;;;;5.20;3.03;;;;;;;22.40;32.96;95531.34;4994910;28;20029;-79
2021/04/11 01:25:27;;;;;;;5.38;3.00;;;;;;;22.35;32.96;95529.38;5011937;28;20045;-79
2021/04/11 01:27:54;;;;;;;4.82;2.83;;;;;;;22.13;32.79;95485.72;4994968;28;20422;-79
2021/04/11 01:30:20;;;;;;;4.35;2.72;;;;;;;22.38;33.08;95533.09;4994818;28;20446;-78
2021/04/11 01:32:46;;;;;;;4.72;3.03;;;;;;;22.37;32.88;95532.34;4994614;28;20052;-78
2021/04/11 01:35:12;;;;;;;4.97;3.08;;;;;;;22.35;33.17;95534.81;4994484;28;20030;-79
2021/04/11 01:37:38;;;;;;;4.63;2.97;;;;;;;22.32;33.06;95538.50;5011778;28;20463;-78
2021/04/11 01:40:04;;;;;;;5.38;2.88;;;;;;;22.28;32.91;95535.28;4994337;28;20030;-78
2021/04/11 01:42:29;;;;;;;5.88;3.33;;;;;;;22.32;33.00;95543.22;4994614;28;20064;-78
2021/04/11 01:44:55;;;;;;;4.68;2.88;;;;;;;22.24;33.00;95534.78;4994325;28;20030;-77
2021/04/11 01:47:20;;;;;;;5.32;3.10;;;;;;;22.03;33.20;95502.75;4978482;28;20148;-78
2021/04/11 01:49:46;;;;;;;5.68;2.67;;;;;;;22.14;33.06;95530.75;4994720;28;20041;-78
2021/04/11 01:52:22;;;;;;;5.43;3.00;;;;;;;22.29;33.13;95552.34;4978012;28;20422;-78
2021/04/11 01:54:48;;;;;;;4.32;2.85;;;;;;;22.26;33.09;95548.63;5011100;28;20049;-79
2021/04/11 01:57:24;;;;;;;4.75;2.95;;;;;;;22.11;33.31;95530.97;4987368;28;20052;-78
2021/04/11 01:59:50;;;;;;;5.10;3.20;;;;;;;22.11;33.11;95525.53;4989259;28;20032;-79
2021/04/11 02:02:16;;;;;;;5.20;3.17;;;;;;;22.19;33.13;95549.06;4988957;28;20030;-78
2021/04/11 02:04:43;;;;;;;4.47;2.92;;;;;;;22.12;33.06;95535.16;4975248;28;20110;-79
2021/04/11 02:07:09;;;;;;;4.88;3.10;;;;;;;22.23;33.19;95555.03;4958712;28;20041;-78
2021/04/11 02:09:41;;;;;;;4.55;3.13;;;;;;;21.96;33.22;95514.84;4974365;28;20030;-77
2021/04/11 02:12:07;;;;;;;6.28;3.40;;;;;;;22.23;33.29;95552.31;4959126;28;20124;-78
2021/04/11 02:14:33;;;;;;;4.65;2.90;;;;;;;22.19;33.32;95543.63;4974615;28;20078;-78
2021/04/11 02:16:58;;;;;;;4.80;3.03;;;;;;;22.21;33.25;95546.63;4958342;28;20124;-78
2021/04/11 02:19:25;;;;;;;5.78;3.55;;;;;;;22.16;33.10;95539.16;4990692;28;20022;-78
2021/04/11 02:21:58;;;;;;;4.18;2.83;;;;;;;22.19;33.27;95543.63;4958495;28;20117;-77
2021/04/11 02:24:24;;;;;;;5.05;3.05;;;;;;;22.19;33.22;95538.16;4974524;28;20029;-79
2021/04/11 02:26:49;;;;;;;6.93;3.30;;;;;;;22.13;33.42;95529.25;4991637;28;20026;-79
2021/04/11 02:29:17;;;;;;;4.75;3.10;;;;;;;22.17;33.37;95535.22;4998555;28;20033;-78
2021/04/11 02:31:43;;;;;;;5.72;3.10;;;;;;;22.13;33.40;95529.25;4993900;28;20048;-78
2021/04/11 02:34:11;;;;;;;4.70;3.10;;;;;;;22.09;33.34;95523.31;4977197;28;20034;-79
2021/04/11 02:36:44;;;;;;;5.43;3.30;;;;;;;22.15;33.40;95532.25;5009569;28;20030;-79
2021/04/11 02:39:13;;;;;;;4.75;3.17;;;;;;;22.14;33.50;95535.44;4994351;28;20022;-78
2021/04/11 02:41:39;;;;;;;5.30;3.38;;;;;;;22.00;33.11;95520.03;4993482;28;20517;-77
2021/04/11 02:44:05;;;;;;;5.68;3.13;;;;;;;22.10;33.43;95541.09;4977443;28;20084;-78
2021/04/11 02:46:33;;;;;;;5.50;3.78;;;;;;;22.12;33.30;95544.09;5010249;28;20033;-77
2021/04/11 02:48:58;;;;;;;6.55;3.22;;;;;;;22.12;33.42;95538.66;4993680;28;20049;-78
2021/04/11 02:51:24;;;;;;;5.00;3.00;;;;;;;22.01;33.47;95533.16;5010574;28;20506;-79
2021/04/11 02:53:50;;;;;;;5.88;3.38;;;;;;;22.08;33.39;95540.84;4993196;28;20030;-78
2021/04/11 02:56:16;;;;;;;5.15;3.25;;;;;;;22.10;33.21;95541.09;4994775;28;20046;-79
2021/04/11 02:58:41;;;;;;;4.68;3.33;;;;;;;21.98;33.36;95517.06;4976834;28;20041;-79
2021/04/11 03:01:10;;;;;;;5.60;2.85;;;;;;;22.04;33.30;95532.16;4992729;28;20052;-77
2021/04/11 03:03:35;;;;;;;5.10;3.28;;;;;;;22.06;33.49;95535.16;4993466;28;20046;-79
2021/04/11 03:06:19;;;;;;;4.95;3.25;;;;;;;22.03;33.56;95536.13;5003281;28;20022;-79
2021/04/11 03:08:49;;;;;;;4.55;3.28;;;;;;;21.93;33.68;95526.69;4973560;28;20491;-78
2021/04/11 03:11:48;;;;;;;5.72;3.10;;;;;;;22.05;33.37;95543.81;4991611;28;20036;-78
2021/04/11 03:14:14;;;;;;;4.47;3.22;;;;;;;22.03;33.46;95538.84;4975778;28;20498;-78
2021/04/11 03:16:41;;;;;;;6.28;3.33;;;;;;;21.96;33.42;95531.16;5009117;28;20057;-79
2021/04/11 03:19:07;;;;;;;5.88;3.72;;;;;;;21.90;33.44;95521.47;4992639;28;20463;-78
2021/04/11 03:21:35;;;;;;;4.95;3.05;;;;;;;21.86;33.59;95514.78;5009243;28;20034;-78
2021/04/11 03:24:02;;;;;;;5.78;3.50;;;;;;;22.03;33.55;95535.38;5009293;28;20037;-79
2021/04/11 03:26:44;;;;;;;5.55;3.33;;;;;;;22.00;33.57;95548.00;4993797;28;20100;-78
2021/04/11 03:29:22;;;;;;;4.47;3.20;;;;;;;21.85;34.06;95518.72;4993594;28;20041;-77
2021/04/11 03:31:53;;;;;;;5.65;3.10;;;;;;;22.01;33.60;95549.47;4995900;28;20061;-77
2021/04/11 03:34:18;;;;;;;4.97;3.17;;;;;;;22.01;33.66;95546.75;4992550;28;20032;-77
2021/04/11 03:36:44;;;;;;;4.97;3.40;;;;;;;21.73;33.50;95511.75;4976136;28;20442;-77
2021/04/11 03:39:10;;;;;;;5.47;3.70;;;;;;;21.87;33.59;95527.13;4975108;28;20026;-77
2021/04/11 03:41:36;;;;;;;4.63;3.22;;;;;;;21.91;33.60;95550.16;4974880;28;20506;-77
2021/04/11 03:44:05;;;;;;;4.43;3.38;;;;;;;21.94;33.65;95555.38;4989326;28;20034;-78
2021/04/11 03:46:50;;;;;;;5.97;3.33;;;;;;;21.99;33.78;95551.94;4972440;28;20475;-78
2021/04/11 03:49:43;;;;;;;5.07;3.15;;;;;;;21.94;33.68;95552.66;4991563;28;20065;-77
2021/04/11 03:52:24;;;;;;;4.70;3.35;;;;;;;21.95;33.62;95565.00;4973102;28;20057;-79
2021/04/11 03:54:50;;;;;;;5.22;3.78;;;;;;;21.91;33.88;95566.47;4969337;28;20055;-77
2021/04/11 03:57:19;;;;;;;6.00;3.25;;;;;;;21.92;33.46;95567.22;4971042;28;20065;-78
2021/04/11 04:00:04;;;;;;;5.10;3.63;;;;;;;21.84;33.63;95564.22;4968906;28;20027;-78
2021/04/11 04:02:30;;;;;;;5.35;3.25;;;;;;;21.88;33.69;95577.56;4984267;28;20027;-79
2021/04/11 04:04:55;;;;;;;4.55;3.40;;;;;;;21.91;33.80;95592.91;4985259;28;20058;-77
2021/04/11 04:07:21;;;;;;;5.38;3.58;;;;;;;21.77;33.47;95572.06;4982623;28;20041;-78
2021/04/11 04:09:55;;;;;;;5.13;3.40;;;;;;;21.92;33.75;95595.88;4969030;28;20042;-78
2021/04/11 04:12:41;;;;;;;5.25;3.50;;;;;;;21.93;33.69;95605.53;4978762;28;20582;-79
2021/04/11 04:15:30;;;;;;;4.75;3.60;;;;;;;21.60;33.63;95546.78;4984006;28;20037;-78
2021/04/11 04:18:33;;;;;;;5.75;3.47;;;;;;;21.92;33.89;95599.84;4969090;28;20479;-78
2021/04/11 04:21:45;;;;;;;5.75;3.58;;;;;;;21.82;34.06;95595.81;4970009;28;20038;-79
2021/04/11 04:24:30;;;;;;;5.72;3.60;;;;;;;21.90;33.79;95613.16;4983215;28;20035;-79
2021/04/11 04:27:00;;;;;;;5.35;3.22;;;;;;;21.92;33.79;95616.16;4988332;28;20029;-79
2021/04/11 04:29:47;;;;;;;4.88;3.17;;;;;;;21.90;33.85;95616.66;4987862;28;20070;-78
2021/04/11 04:32:27;;;;;;;5.30;3.60;;;;;;;21.92;33.74;95618.88;4989097;28;20065;-78
2021/04/11 04:34:59;;;;;;;;;;;;;;;21.90;33.73;95613.16;4988589;28;20034;-78
2021/04/11 04:37:31;;;;;;;5.25;3.25;;;;;;;21.90;33.70;95618.59;4970447;28;19917;-77
2021/04/11 04:40:02;;;;;;;5.25;3.17;;;;;;;21.88;33.64;95621.06;4968687;28;20018;-79
2021/04/11 04:42:58;;;;;;;5.60;3.90;;;;;;;21.75;33.89;95607.91;4985350;28;20019;-78
2021/04/11 04:45:30;;;;;;;4.95;3.50;;;;;;;21.90;33.74;95618.59;4975357;28;20039;-78
2021/04/11 04:48:03;;;;;;;4.90;3.55;;;;;;;21.90;33.84;95618.59;4969764;28;20063;-79
2021/04/11 04:50:34;;;;;;;4.22;3.10;;;;;;;21.85;33.81;95608.44;4985563;28;20455;-79
2021/04/11 04:53:16;;;;;;;5.97;3.40;;;;;;;21.70;33.88;95594.25;4986084;28;20027;-78
2021/04/11 04:55:42;;;;;;;5.57;3.58;;;;;;;21.92;33.87;95621.59;4982507;28;20145;-76
2021/04/11 04:58:24;;;;;;;5.03;3.35;;;;;;;21.97;34.11;95619.66;4984351;28;20030;-76
2021/04/11 05:00:55;;;;;;;6.70;3.47;;;;;;;22.07;34.08;95623.66;4981355;28;20037;-73
2021/04/11 05:03:25;;;;;;;6.28;3.17;;;;;;;22.05;34.00;95615.25;5004040;28;20031;-83
2021/04/11 05:06:08;;;;;;;5.03;3.50;;;;;;;22.12;34.13;95624.94;4967629;28;20031;-82
2021/04/11 05:09:07;;;;;;;5.53;3.28;;;;;;;22.27;34.02;95637.19;4982398;28;20053;-88
2021/04/11 05:11:47;;;;;;;4.65;3.17;;;;;;;22.28;33.74;95637.91;4933293;28;20042;-85
2021/04/11 05:14:18;;;;;;;;;;;;;;;22.35;34.12;95643.66;4988195;28;20023;-83
2021/04/11 05:16:56;;;;;;;4.65;3.30;;;;;;;22.31;33.97;95632.25;4980375;28;19973;-79
2021/04/11 05:19:29;;;;;;;5.32;3.38;;;;;;;22.26;34.04;95619.38;4984766;28;20030;-79
2021/04/11 05:22:28;;;;;;;5.00;3.40;;;;;;;22.35;33.43;95621.88;4968632;28;20034;-79
2021/04/11 05:24:57;;;;;;;5.72;2.97;;;;;;;22.53;33.78;95643.97;4973502;28;20567;-82
2021/04/11 05:27:56;;;;;;;5.63;3.13;;;;;;;22.58;33.65;95635.09;4987143;28;20023;-76
2021/04/11 05:30:26;;;;;;;4.32;2.95;;;;;;;22.60;33.67;95637.31;4975245;28;20035;-80
2021/04/11 05:32:51;;;;;;;5.45;3.28;;;;;;;22.50;33.70;95617.00;4978779;28;20030;-79
2021/04/11 05:35:16;;;;;;;5.57;3.50;;;;;;;22.66;33.64;95636.13;4981753;28;20530;-80
2021/04/11 05:37:52;;;;;;;5.25;3.05;;;;;;;22.67;33.71;95634.13;4982227;28;20510;-86
2021/04/11 05:40:26;;;;;;;5.38;3.00;;;;;;;22.58;33.58;95618.00;4979441;28;20034;-81
2021/04/11 05:42:58;;;;;;;4.38;3.03;;;;;;;22.75;33.52;95632.44;4961193;28;20019;-81
2021/04/11 05:45:48;;;;;;;5.30;2.72;;;;;;;22.71;33.27;95621.03;4977113;28;20019;-72
2021/04/11 05:48:19;;;;;;;5.38;3.58;;;;;;;22.92;33.78;95642.88;4979428;28;20475;-74
2021/04/11 05:51:04;;;;;;;5.28;3.00;;;;;;;23.00;33.30;95643.94;4968856;28;20067;-80
2021/04/11 05:53:37;;;;;;;4.75;3.33;;;;;;;23.06;33.49;95636.53;4981627;28;20031;-76
2021/04/11 05:56:05;;;;;;;5.80;3.30;;;;;;;23.15;33.17;95635.53;4986402;28;20054;-79
2021/04/11 05:58:48;;;;;;;4.75;3.05;;;;;;;23.23;33.18;95629.13;4988511;28;20056;-77
2021/04/11 06:01:18;;;;;;;6.53;3.50;;;;;;;23.36;33.19;95643.00;4967497;28;20141;-76
2021/04/11 06:04:05;;;;;;;8.40;3.20;;;;;;;23.46;32.81;95630.63;4948351;28;20058;-74
2021/04/11 06:06:34;;;;;;;4.38;3.10;;;;;;;23.47;32.46;95621.22;4972729;28;20022;-75
2021/04/11 06:09:02;;;;;;;4.18;2.85;;;;;;;23.65;32.85;95637.13;4969488;28;20037;-75
2021/04/11 06:11:41;;;;;;;4.53;2.88;;;;;;;23.61;32.66;95609.31;4979949;28;20026;-76
2021/04/11 06:14:15;;;;;;;4.10;2.97;;;;;;;23.77;32.23;95614.06;4986522;28;20027;-76
2021/04/11 06:16:40;;;;;;;4.63;2.83;;;;;;;23.85;32.27;95606.88;4970354;28;20086;-82
2021/04/11 06:19:06;;;;;;;5.45;2.97;;;;;;;23.96;32.24;95611.06;4954671;28;20035;-81
2021/04/11 06:21:31;;;;;;;4.32;2.80;;;;;;;24.19;32.17;95626.16;4971864;28;20455;-77
2021/04/11 06:24:18;;;;;;;4.82;3.20;;;;;;;24.27;31.79;95629.84;4978332;28;20033;-80
2021/04/11 06:26:48;;;;;;;4.55;3.03;;;;;;;24.27;31.36;95605.28;4977787;28;20041;-80
2021/04/11 06:29:20;;;;;;;4.75;3.22;;;;;;;24.34;31.38;95607.53;4998425;28;20073;-79
2021/04/11 06:31:58;;;;;;;5.50;3.50;;;;;;;24.53;30.99;95622.13;4970520;28;20511;-75
2021/04/11 06:34:26;;;;;;;5.75;3.40;;;;;;;24.67;30.93;95621.06;4986894;28;20085;-84
2021/04/11 06:36:54;;;;;;;5.13;3.08;;;;;;;24.74;31.36;95609.59;4979769;28;20514;-80
2021/04/11 06:39:25;;;;;;;4.57;2.80;;;;;;;24.70;30.97;95598.22;4990296;28;20031;-79
2021/04/11 06:41:59;;;;;;;4.43;2.88;;;;;;;24.89;31.05;95622.44;4981405;28;20023;-78
2021/04/11 06:44:28;;;;;;;5.15;3.30;;;;;;;24.96;31.02;95611.00;4967619;28;20461;-78
2021/04/11 06:47:05;;;;;;;5.57;3.15;;;;;;;25.07;30.88;95626.63;4965686;28;20038;-78
2021/04/11 06:50:04;;;;;;;4.90;3.40;;;;;;;25.15;30.92;95628.28;4971315;28;20039;-78
2021/04/11 06:53:00;;;;;;;5.18;3.45;;;;;;;25.18;30.96;95632.75;4971754;28;20066;-83
2021/04/11 06:55:53;;;;;;;4.68;2.78;;;;;;;25.26;30.63;95630.22;4978019;28;20049;-78
2021/04/11 06:58:36;;;;;;;5.45;3.25;;;;;;;25.29;30.67;95632.69;4997824;28;20084;-77
2021/04/11 07:01:14;;;;;;;5.78;3.40;;;;;;;25.35;30.61;95625.94;5003294;28;20041;-79
2021/04/11 07:04:18;;;;;;;4.78;3.30;;;;;;;25.38;30.46;95624.16;5001568;28;20037;-75
2021/04/11 07:07:12;;;;;;;5.50;3.10;;;;;;;25.41;30.69;95634.06;5001551;28;20046;-78
2021/04/11 07:10:05;;;;;;;4.93;3.10;;;;;;;25.45;30.42;95634.56;5004261;28;20036;-80
2021/04/11 07:12:33;;;;;;;5.47;3.30;;;;;;;25.53;30.30;95635.47;5002005;28;20033;-85
2021/04/11 07:15:32;;;;;;;7.63;4.80;;;;;;;25.51;29.16;95638.00;4999089;28;20033;-83
2021/04/11 07:18:05;;;;;;;6.63;3.33;;;;;;;25.59;29.75;95638.94;4998824;28;20033;-76
2021/04/11 07:20:47;;;;;;;5.20;3.13;;;;;;;25.65;29.88;95631.44;5001729;28;20491;-78
2021/04/11 07:23:18;;;;;;;6.95;3.65;;;;;;;25.72;29.73;95641.84;5003405;28;20041;-79
2021/04/11 07:26:18;;;;;;;6.05;3.40;;;;;;;25.74;29.81;95633.88;4997508;28;20087;-79
2021/04/11 07:28:49;;;;;;;5.17;3.83;;;;;;;25.79;29.91;95626.34;4988609;28;20030;-79
2021/04/11 07:31:50;;;;;;;5.20;3.38;;;;;;;25.82;30.03;95633.53;4999826;28;20296;-77
2021/04/11 07:34:42;;;;;;;4.40;2.80;;;;;;;25.88;29.59;95628.75;4999411;28;20163;-74
2021/04/11 07:37:33;;;;;;;5.50;3.20;;;;;;;25.99;29.83;95625.94;4986135;28;20514;-75
2021/04/11 07:40:10;;;;;;;6.35;3.53;;;;;;;25.98;30.02;95621.00;4989491;28;20030;-77
2021/04/11 07:42:50;;;;;;;6.60;3.65;;;;;;;26.04;29.89;95624.41;4995909;28;20503;-76
2021/04/11 07:45:29;;;;;;;;;;;;;;;26.00;29.72;95619.19;4998661;28;20101;-75
2021/04/11 07:48:33;;;;;;;7.88;3.97;;;;;;;26.02;29.28;95615.94;4993536;28;19917;-75
2021/04/11 07:51:29;;;;;;;5.25;3.45;;;;;;;26.09;29.53;95616.13;4992338;28;20474;-76
2021/04/11 07:54:14;;;;;;;5.45;3.10;;;;;;;26.14;29.46;95612.59;4999274;28;20030;-75
2021/04/11 07:57:01;;;;;;;5.75;3.47;;;;;;;26.22;29.30;95608.03;5019291;28;20100;-75
2021/04/11 07:59:57;;;;;;;5.00;3.15;;;;;;;26.38;29.51;95612.63;5018220;28;20455;-73
2021/04/11 08:02:41;;;;;;;4.45;3.05;;;;;;;26.13;29.52;95586.47;5013802;28;20029;-78
2021/04/11 08:05:24;;;;;;;6.07;3.30;;;;;;;26.17;29.73;95617.03;5006826;28;20026;-74
2021/04/11 08:08:27;;;;;;;5.38;3.05;;;;;;;26.23;29.39;95609.50;5002908;28;20498;-82
2021/04/11 08:11:04;;;;;;;5.15;3.50;;;;;;;26.26;29.52;95615.97;5006959;28;20077;-75
2021/04/11 08:13:30;;;;;;;5.28;3.35;;;;;;;26.24;29.43;95616.47;5010554;28;20041;-75
2021/04/11 08:16:23;;;;;;;5.25;3.00;;;;;;;26.18;29.74;95620.53;5015038;28;20429;-82
2021/04/11 08:19:04;;;;;;;4.85;3.13;;;;;;;26.20;29.43;95605.06;5005218;28;20280;-78
2021/04/11 08:21:36;;;;;;;5.50;3.40;;;;;;;26.28;29.43;95600.53;4979310;28;20081;-80
2021/04/11 08:24:31;;;;;;;5.22;3.50;;;;;;;26.36;29.63;95617.88;4991845;28;20014;-77
2021/04/11 08:27:34;;;;;;;4.55;3.03;;;;;;;26.44;29.25;95618.78;4986905;28;20116;-80
2021/04/11 08:30:14;;;;;;;5.35;3.33;;;;;;;26.47;29.12;95612.28;5018605;28;20033;-80
2021/04/11 08:32:46;;;;;;;4.75;3.10;;;;;;;26.45;29.15;95610.03;5017144;28;20033;-75
2021/04/11 08:35:15;;;;;;;4.88;3.30;;;;;;;26.49;29.51;95598.81;5007407;28;20048;-80
2021/04/11 08:38:19;;;;;;;4.45;3.00;;;;;;;26.51;29.17;95597.03;5002462;28;20425;-80
2021/04/11 08:41:19;;;;;;;5.30;3.35;;;;;;;26.47;29.37;95595.84;5007872;28;20042;-90
2021/04/11 08:44:19;;;;;;;6.22;3.10;;;;;;;26.52;29.19;95592.31;5010027;28;20033;-80
2021/04/11 08:47:05;;;;;;;4.60;3.17;;;;;;;26.54;29.31;95589.78;5009891;28;20057;-76
2021/04/11 08:49:45;;;;;;;5.55;3.03;;;;;;;26.56;29.15;95598.97;5009798;28;20026;-79
2021/04/11 08:52:21;;;;;;;6.25;3.58;;;;;;;26.66;29.11;95591.13;4984831;28;20018;-78
2021/04/11 08:54:51;;;;;;;7.30;3.38;;;;;;;26.51;29.24;95591.53;4990262;28;20069;-77
2021/04/11 08:57:54;;;;;;;7.40;3.25;;;;;;;26.46;29.24;95588.88;4982080;28;20052;-78
2021/04/11 09:00:34;;;;;;;6.45;3.35;;;;;;;26.51;29.30;95585.34;5007762;28;20034;-77
2021/04/11 09:03:27;;;;;;;4.72;3.40;;;;;;;26.64;29.08;95577.22;4999269;28;20909;-83
2021/04/11 09:06:08;;;;;;;7.00;3.17;;;;;;;26.57;29.03;95577.78;5017790;28;20037;-85
2021/04/11 09:08:46;;;;;;;6.65;3.30;;;;;;;26.61;28.97;95575.50;5004550;28;20460;-80
2021/04/11 09:11:17;;;;;;;5.72;3.17;;;;;;;26.56;28.99;95576.31;5002185;28;20112;-81
2021/04/11 09:13:45;;;;;;;6.07;3.42;;;;;;;26.57;29.16;95573.03;4995310;28;20057;-83
2021/04/11 09:16:23;;;;;;;5.47;3.10;;;;;;;26.57;29.16;95566.84;4999944;28;20042;-85
2021/04/11 09:19:10;;;;;;;6.10;3.17;;;;;;;26.58;28.74;95573.81;4980582;28;20029;-79
2021/04/11 09:21:58;;;;;;;5.18;3.28;;;;;;;26.58;29.24;95562.84;5000223;28;20038;-85
2021/04/11 09:25:01;;;;;;;4.88;3.40;;;;;;;26.63;28.80;95564.78;5013614;28;20068;-81
2021/04/11 09:28:00;;;;;;;5.82;3.33;;;;;;;26.65;29.06;95564.97;4995206;28;20030;-82
2021/04/11 09:30:37;;;;;;;5.38;3.00;;;;;;;26.68;28.73;95563.94;5001055;28;20171;-76
2021/04/11 09:33:37;;;;;;;5.72;3.55;;;;;;;26.64;29.00;95561.50;4996505;28;20117;-76
2021/04/11 09:36:47;;;;;;;5.43;2.97;;;;;;;26.57;28.97;95550.41;5001316;28;20042;-76
2021/04/11 09:39:35;;;;;;;6.88;3.45;;;;;;;26.63;29.02;95554.53;4988535;28;20116;-76
2021/04/11 09:42:39;;;;;;;6.88;3.80;;;;;;;26.77;28.34;95536.94;4996469;28;20041;-81
2021/04/11 09:45:13;;;;;;;7.38;3.15;;;;;;;26.58;29.09;95535.44;5000346;28;20026;-76
2021/04/11 09:47:51;;;;;;;5.38;3.33;;;;;;;26.46;29.27;95539.59;4999914;28;20077;-77
2021/04/11 09:50:21;;;;;;;5.03;3.28;;;;;;;26.38;29.34;95541.41;5010225;28;20112;-77
2021/04/11 09:53:10;;;;;;;;;;;;;;;26.28;29.15;95534.81;4999629;28;20487;-77
2021/04/11 09:55:46;;;;;;;6.10;3.40;;;;;;;26.18;29.35;95517.22;4990689;28;19925;-76
2021/04/11 09:58:29;;;;;;;5.25;3.40;;;;;;;26.06;29.60;95518.59;4994249;28;20034;-77
2021/04/11 10:01:12;;;;;;;5.72;3.25;;;;;;;26.05;29.75;95539.03;4985185;28;20064;-76
2021/04/11 10:04:04;;;;;;;8.27;3.53;;;;;;;25.95;29.53;95529.69;4985101;28;20036;-76
2021/04/11 10:06:52;;;;;;;5.88;3.30;;;;;;;25.89;29.88;95526.25;5001632;28;20108;-76
2021/04/11 10:09:17;;;;;;;7.25;3.45;;;;;;;25.90;29.61;95527.75;5002376;28;20030;-76
2021/04/11 10:11:43;;;;;;;6.70;3.40;;;;;;;25.84;29.87;95540.00;5004302;28;20030;-76
2021/04/11 10:14:14;;;;;;;5.72;3.25;;;;;;;25.76;30.16;95535.63;5005349;28;20491;-76
2021/04/11 10:16:55;;;;;;;4.65;3.22;;;;;;;25.74;30.32;95529.91;5004465;28;20573;-76
2021/04/11 10:19:39;;;;;;;7.70;3.55;;;;;;;25.60;28.66;95503.66;5002662;28;20029;-81
2021/04/11 10:22:49;;;;;;;7.07;3.75;;;;;;;25.86;26.67;95519.09;5003495;28;20033;-80
2021/04/11 10:25:22;;;;;;;5.72;3.22;;;;;;;25.58;27.77;95525.31;5013686;28;20045;-89
2021/04/11 10:28:16;;;;;;;6.05;3.00;;;;;;;25.39;25.60;95516.28;5017453;28;20113;-88
2021/04/11 10:30:42;;;;;;;5.38;2.90;;;;;;;25.61;24.97;95521.56;5020389;28;20361;-77
2021/04/11 10:33:34;;;;;;;5.28;2.92;;;;;;;25.59;23.43;95524.03;4995316;28;20033;-76
2021/04/11 10:36:11;;;;;;;5.03;3.35;;;;;;;25.29;25.21;95520.59;5006308;28;20041;-77
2021/04/11 10:38:41;;;;;;;5.32;3.08;;;;;;;25.31;23.64;95520.81;4986857;28;20125;-79
2021/04/11 10:41:33;;;;;;;4.28;2.72;;;;;;;25.10;24.25;95522.47;5019059;28;20128;-79
2021/04/11 10:44:29;;;;;;;5.65;2.92;;;;;;;25.14;24.02;95511.25;4986875;28;20529;-79
2021/04/11 10:47:19;;;;;;;4.95;2.72;;;;;;;24.99;25.48;95517.09;5019399;28;20467;-83
2021/04/11 10:49:44;;;;;;;;;;;;;;;24.98;25.43;95510.13;5022080;28;20029;-81
2021/04/11 10:52:31;;;;;;;5.90;2.67;;;;;;;25.01;23.81;95511.84;5019545;28;19913;-81
2021/04/11 10:55:19;;;;;;;6.70;3.20;;;;;;;25.00;23.13;95507.63;5012217;28;20296;-81
2021/04/11 10:58:21;;;;;;;5.13;2.78;;;;;;;25.02;23.22;95504.38;5016438;28;20034;-86
2021/04/11 11:01:18;;;;;;;4.45;2.55;;;;;;;24.92;23.11;95500.47;5016219;28;20040;-86
2021/04/11 11:04:18;;;;;;;6.05;3.35;;;;;;;24.78;24.53;95506.28;5022927;28;20029;-87
2021/04/11 11:07:18;;;;;;;5.28;2.80;;;;;;;24.72;24.30;95491.91;5001861;28;20086;-86
2021/04/11 11:09:47;;;;;;;6.78;2.47;;;;;;;24.75;23.11;95496.38;5025438;28;20610;-86
2021/04/11 11:12:34;;;;;;;7.47;2.88;;;;;;;24.73;23.16;95477.00;4986646;28;20018;-81
2021/04/11 11:15:26;;;;;;;5.70;2.90;;;;;;;24.82;22.04;95491.84;5004983;28;20029;-86
2021/04/11 11:18:01;;;;;;;4.85;2.70;;;;;;;24.73;21.45;95477.00;5020436;28;20037;-83
2021/04/11 11:20:50;;;;;;;4.05;2.35;;;;;;;24.71;22.12;95490.41;4990070;28;20084;-82
2021/04/11 11:23:38;;;;;;;4.25;2.50;;;;;;;24.67;21.71;95485.25;4993282;28;20021;-87
2021/04/11 11:26:37;;;;;;;6.75;2.67;;;;;;;24.65;21.06;95481.53;4999047;28;20467;-79
2021/04/11 11:29:11;;;;;;;5.03;2.60;;;;;;;24.57;23.69;95475.88;5015493;28;20490;-75
2021/04/11 11:31:50;;;;;;;4.35;2.60;;;;;;;24.45;25.19;95462.78;5007283;28;20131;-75
2021/04/11 11:34:18;;;;;;;5.72;2.72;;;;;;;24.51;25.36;95471.69;5002314;28;20022;-76
2021/04/11 11:37:13;;;;;;;4.80;2.35;;;;;;;24.27;25.73;95425.13;5022276;28;20182;-75
2021/04/11 11:39:46;;;;;;;7.03;3.60;;;;;;;24.57;24.95;95453.28;4994937;28;20053;-76
2021/04/11 11:43:07;;;;;;;4.70;3.08;;;;;;;24.67;22.60;95462.66;4996422;28;20068;-75
2021/04/11 11:45:41;;;;;;;5.30;2.83;;;;;;;24.71;22.72;95452.94;4974677;28;20494;-76
2021/04/11 11:48:38;;;;;;;4.07;2.60;;;;;;;24.82;22.87;95444.66;5021871;28;20057;-72
2021/04/11 11:51:06;;;;;;;6.70;2.95;;;;;;;24.85;24.41;95447.09;5017173;28;20065;-70
2021/04/11 11:53:39;;;;;;;5.63;2.60;;;;;;;24.71;24.85;95424.88;5017783;28;20104;-73
2021/04/11 11:56:32;;;;;;;5.57;3.15;;;;;;;24.93;23.88;95437.13;5003998;28;20465;-71
2021/04/11 11:59:12;;;;;;;4.72;2.67;;;;;;;25.09;22.53;95427.31;4988873;28;20511;-75
2021/04/11 12:01:53;;;;;;;7.00;2.85;;;;;;;25.18;22.33;95425.00;4985244;28;20029;-76
2021/04/11 12:04:25;;;;;;;6.35;2.60;;;;;;;25.20;20.95;95422.50;5006296;28;20037;-76
2021/04/11 12:06:51;;;;;;;4.75;2.53;;;;;;;25.16;19.65;95405.66;5008819;28;20034;-75
2021/04/11 12:09:31;;;;;;;5.78;2.90;;;;;;;25.32;20.07;95415.69;4972154;28;20116;-76
2021/04/11 12:12:19;;;;;;;5.13;2.60;;;;;;;25.43;20.99;95418.31;4990643;28;20201;-75
2021/04/11 12:14:53;;;;;;;6.38;3.45;;;;;;;25.48;21.02;95425.69;4991086;28;20060;-75
2021/04/11 12:17:37;;;;;;;5.53;3.00;;;;;;;25.50;19.82;95417.72;4987647;28;20404;-76
2021/04/11 12:20:07;;;;;;;5.78;2.50;;;;;;;25.59;19.51;95414.63;5010501;28;20033;-76
2021/04/11 12:23:05;;;;;;;6.05;2.88;;;;;;;25.51;19.05;95400.06;5004328;28;20110;-75